sensor_id;sensor_type;location;lat;lon;timestamp;P1;durP1;ratioP1;P2;durP2;ratioP2
39792;SDS011;26080;42.264;24.536;2023-12-29T00:01:56;7.55;;;3.05;;
39792;SDS011;26080;42.264;24.536;2023-12-29T00:04:21;14.45;;;4.03;;
39792;SDS011;26080;42.264;24.536;2023-12-29T00:06:47;8.07;;;3.42;;
39792;SDS011;26080;42.264;24.536;2023-12-29T00:09:14;8.95;;;3.55;;
39792;SDS011;26080;42.264;24.536;2023-12-29T00:11:39;10.93;;;2.40;;
39792;SDS011;26080;42.264;24.536;2023-12-29T00:14:05;6.18;;;2.80;;
39792;SDS011;26080;42.264;24.536;2023-12-29T00:16:30;6.15;;;3.80;;
39792;SDS011;26080;42.264;24.536;2023-12-29T00:18:56;5.10;;;2.78;;
39792;SDS011;26080;42.264;24.536;2023-12-29T00:21:21;3.60;;;1.95;;
39792;SDS011;26080;42.264;24.536;2023-12-29T00:23:47;10.75;;;3.55;;
39792;SDS011;26080;42.264;24.536;2023-12-29T00:26:15;5.53;;;3.50;;
39792;SDS011;26080;42.264;24.536;2023-12-29T00:28:41;7.35;;;4.50;;
39792;SDS011;26080;42.264;24.536;2023-12-29T00:31:07;3.90;;;2.53;;
39792;SDS011;26080;42.264;24.536;2023-12-29T00:33:32;7.63;;;3.53;;
39792;SDS011;26080;42.264;24.536;2023-12-29T00:35:58;4.93;;;2.83;;
39792;SDS011;26080;42.264;24.536;2023-12-29T00:38:24;5.53;;;3.70;;
39792;SDS011;26080;42.264;24.536;2023-12-29T00:40:51;11.02;;;5.20;;
39792;SDS011;26080;42.264;24.536;2023-12-29T00:43:17;14.07;;;4.47;;
39792;SDS011;26080;42.264;24.536;2023-12-29T00:45:42;5.63;;;3.45;;
39792;SDS011;26080;42.264;24.536;2023-12-29T00:48:08;20.50;;;4.38;;
39792;SDS011;26080;42.264;24.536;2023-12-29T00:50:34;10.85;;;3.95;;
39792;SDS011;26080;42.264;24.536;2023-12-29T00:52:59;8.18;;;4.05;;
39792;SDS011;26080;42.264;24.536;2023-12-29T00:55:25;9.73;;;2.60;;
39792;SDS011;26080;42.264;24.536;2023-12-29T00:57:50;9.25;;;3.63;;
39792;SDS011;26080;42.264;24.536;2023-12-29T01:00:16;6.65;;;4.00;;
39792;SDS011;26080;42.264;24.536;2023-12-29T01:02:41;9.27;;;3.35;;
39792;SDS011;26080;42.264;24.536;2023-12-29T01:05:07;13.90;;;3.20;;
39792;SDS011;26080;42.264;24.536;2023-12-29T01:07:32;12.13;;;3.88;;
39792;SDS011;26080;42.264;24.536;2023-12-29T01:09:58;9.02;;;3.47;;
39792;SDS011;26080;42.264;24.536;2023-12-29T01:12:23;8.55;;;3.63;;
39792;SDS011;26080;42.264;24.536;2023-12-29T01:14:50;10.20;;;4.18;;
39792;SDS011;26080;42.264;24.536;2023-12-29T01:17:15;8.02;;;4.15;;
39792;SDS011;26080;42.264;24.536;2023-12-29T01:19:41;14.45;;;4.45;;
39792;SDS011;26080;42.264;24.536;2023-12-29T01:22:06;11.55;;;5.45;;
39792;SDS011;26080;42.264;24.536;2023-12-29T01:24:31;4.75;;;3.05;;
39792;SDS011;26080;42.264;24.536;2023-12-29T01:26:57;5.22;;;3.17;;
39792;SDS011;26080;42.264;24.536;2023-12-29T01:29:22;9.02;;;3.90;;
39792;SDS011;26080;42.264;24.536;2023-12-29T01:31:47;6.05;;;3.17;;
39792;SDS011;26080;42.264;24.536;2023-12-29T01:34:13;6.80;;;2.20;;
39792;SDS011;26080;42.264;24.536;2023-12-29T01:36:39;7.13;;;3.20;;
39792;SDS011;26080;42.264;24.536;2023-12-29T01:39:04;5.75;;;3.28;;
39792;SDS011;26080;42.264;24.536;2023-12-29T01:41:30;5.47;;;3.58;;
39792;SDS011;26080;42.264;24.536;2023-12-29T01:46:31;8.48;;;2.47;;
39792;SDS011;26080;42.264;24.536;2023-12-29T01:48:59;4.97;;;2.88;;
39792;SDS011;26080;42.264;24.536;2023-12-29T01:51:26;14.77;;;2.67;;
39792;SDS011;26080;42.264;24.536;2023-12-29T01:53:52;5.63;;;1.92;;
39792;SDS011;26080;42.264;24.536;2023-12-29T01:56:20;3.22;;;1.60;;
39792;SDS011;26080;42.264;24.536;2023-12-29T01:58:47;3.63;;;2.33;;
39792;SDS011;26080;42.264;24.536;2023-12-29T02:01:14;6.13;;;2.17;;
39792;SDS011;26080;42.264;24.536;2023-12-29T02:03:40;3.47;;;1.50;;
39792;SDS011;26080;42.264;24.536;2023-12-29T02:06:06;4.95;;;2.70;;
39792;SDS011;26080;42.264;24.536;2023-12-29T02:08:32;2.75;;;1.25;;
39792;SDS011;26080;42.264;24.536;2023-12-29T02:10:58;1.98;;;1.42;;
39792;SDS011;26080;42.264;24.536;2023-12-29T02:13:24;1.65;;;1.52;;
39792;SDS011;26080;42.264;24.536;2023-12-29T02:15:52;3.40;;;1.70;;
39792;SDS011;26080;42.264;24.536;2023-12-29T02:18:24;2.28;;;0.95;;
39792;SDS011;26080;42.264;24.536;2023-12-29T02:20:51;2.83;;;1.65;;
39792;SDS011;26080;42.264;24.536;2023-12-29T02:23:17;1.92;;;1.20;;
39792;SDS011;26080;42.264;24.536;2023-12-29T02:25:43;2.88;;;1.58;;
39792;SDS011;26080;42.264;24.536;2023-12-29T02:28:16;3.17;;;1.55;;
39792;SDS011;26080;42.264;24.536;2023-12-29T02:30:49;5.55;;;2.00;;
39792;SDS011;26080;42.264;24.536;2023-12-29T02:33:21;3.55;;;1.65;;
39792;SDS011;26080;42.264;24.536;2023-12-29T02:35:48;7.57;;;2.35;;
39792;SDS011;26080;42.264;24.536;2023-12-29T02:38:16;10.55;;;2.70;;
39792;SDS011;26080;42.264;24.536;2023-12-29T02:40:42;4.28;;;1.42;;
39792;SDS011;26080;42.264;24.536;2023-12-29T02:43:10;3.83;;;1.65;;
39792;SDS011;26080;42.264;24.536;2023-12-29T02:45:36;4.88;;;2.88;;
39792;SDS011;26080;42.264;24.536;2023-12-29T02:48:01;4.55;;;2.35;;
39792;SDS011;26080;42.264;24.536;2023-12-29T02:50:26;7.13;;;2.80;;
39792;SDS011;26080;42.264;24.536;2023-12-29T02:52:52;8.55;;;3.63;;
39792;SDS011;26080;42.264;24.536;2023-12-29T02:55:17;8.50;;;2.20;;
39792;SDS011;26080;42.264;24.536;2023-12-29T02:57:44;5.68;;;1.38;;
39792;SDS011;26080;42.264;24.536;2023-12-29T03:00:09;6.15;;;3.22;;
39792;SDS011;26080;42.264;24.536;2023-12-29T03:02:35;3.70;;;1.58;;
39792;SDS011;26080;42.264;24.536;2023-12-29T03:05:01;4.82;;;1.60;;
39792;SDS011;26080;42.264;24.536;2023-12-29T03:07:27;2.55;;;1.15;;
39792;SDS011;26080;42.264;24.536;2023-12-29T03:09:52;10.45;;;2.33;;
39792;SDS011;26080;42.264;24.536;2023-12-29T03:12:18;2.47;;;1.60;;
39792;SDS011;26080;42.264;24.536;2023-12-29T03:14:46;1.58;;;1.20;;
39792;SDS011;26080;42.264;24.536;2023-12-29T03:17:12;4.75;;;1.90;;
39792;SDS011;26080;42.264;24.536;2023-12-29T03:19:37;5.82;;;2.35;;
39792;SDS011;26080;42.264;24.536;2023-12-29T03:22:03;2.55;;;1.25;;
39792;SDS011;26080;42.264;24.536;2023-12-29T03:24:28;1.35;;;1.10;;
39792;SDS011;26080;42.264;24.536;2023-12-29T03:26:54;2.55;;;1.40;;
39792;SDS011;26080;42.264;24.536;2023-12-29T03:29:20;3.28;;;2.03;;
39792;SDS011;26080;42.264;24.536;2023-12-29T03:31:45;16.45;;;2.22;;
39792;SDS011;26080;42.264;24.536;2023-12-29T03:34:11;23.73;;;2.40;;
39792;SDS011;26080;42.264;24.536;2023-12-29T03:36:36;2.78;;;1.65;;
39792;SDS011;26080;42.264;24.536;2023-12-29T03:39:02;4.13;;;2.45;;
39792;SDS011;26080;42.264;24.536;2023-12-29T03:41:30;4.45;;;2.72;;
39792;SDS011;26080;42.264;24.536;2023-12-29T03:43:55;11.95;;;4.20;;
39792;SDS011;26080;42.264;24.536;2023-12-29T03:46:21;28.25;;;6.47;;
39792;SDS011;26080;42.264;24.536;2023-12-29T03:48:47;23.58;;;7.97;;
39792;SDS011;26080;42.264;24.536;2023-12-29T03:51:13;20.45;;;5.75;;
39792;SDS011;26080;42.264;24.536;2023-12-29T03:53:42;10.77;;;3.80;;
39792;SDS011;26080;42.264;24.536;2023-12-29T03:56:08;8.15;;;3.05;;
39792;SDS011;26080;42.264;24.536;2023-12-29T03:58:37;6.18;;;2.35;;
39792;SDS011;26080;42.264;24.536;2023-12-29T04:01:03;7.15;;;2.38;;
39792;SDS011;26080;42.264;24.536;2023-12-29T04:03:29;7.80;;;3.05;;
39792;SDS011;26080;42.264;24.536;2023-12-29T04:05:54;4.50;;;2.78;;
39792;SDS011;26080;42.264;24.536;2023-12-29T04:08:19;7.50;;;3.45;;
39792;SDS011;26080;42.264;24.536;2023-12-29T04:10:45;7.07;;;2.35;;
39792;SDS011;26080;42.264;24.536;2023-12-29T04:13:10;4.85;;;2.03;;
39792;SDS011;26080;42.264;24.536;2023-12-29T04:15:36;5.50;;;2.35;;
39792;SDS011;26080;42.264;24.536;2023-12-29T04:18:01;3.08;;;1.98;;
39792;SDS011;26080;42.264;24.536;2023-12-29T04:20:27;4.60;;;2.47;;
39792;SDS011;26080;42.264;24.536;2023-12-29T04:22:52;5.95;;;2.78;;
39792;SDS011;26080;42.264;24.536;2023-12-29T04:25:18;7.35;;;2.50;;
39792;SDS011;26080;42.264;24.536;2023-12-29T04:27:43;11.82;;;6.07;;
39792;SDS011;26080;42.264;24.536;2023-12-29T04:30:09;7.00;;;3.88;;
39792;SDS011;26080;42.264;24.536;2023-12-29T04:32:34;6.07;;;2.75;;
39792;SDS011;26080;42.264;24.536;2023-12-29T04:35:00;11.90;;;4.15;;
39792;SDS011;26080;42.264;24.536;2023-12-29T04:37:25;10.75;;;4.65;;
39792;SDS011;26080;42.264;24.536;2023-12-29T04:39:51;7.55;;;4.30;;
39792;SDS011;26080;42.264;24.536;2023-12-29T04:42:16;5.97;;;2.92;;
39792;SDS011;26080;42.264;24.536;2023-12-29T04:44:43;12.07;;;5.60;;
39792;SDS011;26080;42.264;24.536;2023-12-29T04:47:08;13.43;;;7.57;;
39792;SDS011;26080;42.264;24.536;2023-12-29T04:49:34;23.17;;;7.10;;
39792;SDS011;26080;42.264;24.536;2023-12-29T04:51:59;10.57;;;6.30;;
39792;SDS011;26080;42.264;24.536;2023-12-29T04:54:25;15.05;;;6.97;;
39792;SDS011;26080;42.264;24.536;2023-12-29T04:56:50;9.57;;;4.45;;
39792;SDS011;26080;42.264;24.536;2023-12-29T04:59:16;11.00;;;4.30;;
39792;SDS011;26080;42.264;24.536;2023-12-29T05:01:41;7.50;;;5.15;;
39792;SDS011;26080;42.264;24.536;2023-12-29T05:04:10;18.33;;;5.88;;
39792;SDS011;26080;42.264;24.536;2023-12-29T05:06:35;19.63;;;6.25;;
39792;SDS011;26080;42.264;24.536;2023-12-29T05:09:01;13.27;;;5.80;;
39792;SDS011;26080;42.264;24.536;2023-12-29T05:11:26;8.65;;;4.90;;
39792;SDS011;26080;42.264;24.536;2023-12-29T05:13:52;11.52;;;5.60;;
39792;SDS011;26080;42.264;24.536;2023-12-29T05:16:17;13.55;;;6.70;;
39792;SDS011;26080;42.264;24.536;2023-12-29T05:18:43;14.48;;;6.80;;
39792;SDS011;26080;42.264;24.536;2023-12-29T05:21:15;31.42;;;15.77;;
39792;SDS011;26080;42.264;24.536;2023-12-29T05:23:41;26.42;;;14.23;;
39792;SDS011;26080;42.264;24.536;2023-12-29T05:26:06;18.48;;;8.05;;
39792;SDS011;26080;42.264;24.536;2023-12-29T05:28:32;28.70;;;15.13;;
39792;SDS011;26080;42.264;24.536;2023-12-29T05:30:57;39.38;;;14.77;;
39792;SDS011;26080;42.264;24.536;2023-12-29T05:33:24;11.32;;;7.00;;
39792;SDS011;26080;42.264;24.536;2023-12-29T05:35:49;9.30;;;3.75;;
39792;SDS011;26080;42.264;24.536;2023-12-29T05:38:14;8.10;;;3.50;;
39792;SDS011;26080;42.264;24.536;2023-12-29T05:40:40;16.80;;;6.13;;
39792;SDS011;26080;42.264;24.536;2023-12-29T05:43:05;14.07;;;3.25;;
39792;SDS011;26080;42.264;24.536;2023-12-29T05:45:31;6.80;;;4.15;;
39792;SDS011;26080;42.264;24.536;2023-12-29T05:47:56;8.45;;;5.03;;
39792;SDS011;26080;42.264;24.536;2023-12-29T05:50:22;22.83;;;7.80;;
39792;SDS011;26080;42.264;24.536;2023-12-29T05:52:47;15.68;;;6.15;;
39792;SDS011;26080;42.264;24.536;2023-12-29T05:55:16;6.33;;;4.00;;
39792;SDS011;26080;42.264;24.536;2023-12-29T05:57:42;6.93;;;3.60;;
39792;SDS011;26080;42.264;24.536;2023-12-29T06:00:08;5.10;;;3.30;;
39792;SDS011;26080;42.264;24.536;2023-12-29T06:02:39;12.90;;;7.05;;
39792;SDS011;26080;42.264;24.536;2023-12-29T06:05:05;10.02;;;3.58;;
39792;SDS011;26080;42.264;24.536;2023-12-29T06:07:31;7.30;;;2.85;;
39792;SDS011;26080;42.264;24.536;2023-12-29T06:09:57;13.50;;;3.60;;
39792;SDS011;26080;42.264;24.536;2023-12-29T06:12:22;81.70;;;37.65;;
39792;SDS011;26080;42.264;24.536;2023-12-29T06:14:47;35.25;;;15.82;;
39792;SDS011;26080;42.264;24.536;2023-12-29T06:17:13;28.67;;;12.90;;
39792;SDS011;26080;42.264;24.536;2023-12-29T06:19:39;34.25;;;17.25;;
39792;SDS011;26080;42.264;24.536;2023-12-29T06:22:04;29.73;;;17.13;;
39792;SDS011;26080;42.264;24.536;2023-12-29T06:24:30;23.75;;;11.20;;
39792;SDS011;26080;42.264;24.536;2023-12-29T06:26:57;12.70;;;6.65;;
39792;SDS011;26080;42.264;24.536;2023-12-29T06:29:23;7.97;;;5.25;;
39792;SDS011;26080;42.264;24.536;2023-12-29T06:31:48;11.13;;;5.97;;
39792;SDS011;26080;42.264;24.536;2023-12-29T06:34:14;36.70;;;9.80;;
39792;SDS011;26080;42.264;24.536;2023-12-29T06:36:39;21.42;;;12.63;;
39792;SDS011;26080;42.264;24.536;2023-12-29T06:39:05;27.42;;;13.27;;
39792;SDS011;26080;42.264;24.536;2023-12-29T06:41:30;18.58;;;9.27;;
39792;SDS011;26080;42.264;24.536;2023-12-29T06:44:17;8.48;;;5.10;;
39792;SDS011;26080;42.264;24.536;2023-12-29T06:46:42;6.80;;;4.85;;
39792;SDS011;26080;42.264;24.536;2023-12-29T06:49:08;5.75;;;3.20;;
39792;SDS011;26080;42.264;24.536;2023-12-29T06:51:34;8.30;;;4.43;;
39792;SDS011;26080;42.264;24.536;2023-12-29T06:54:00;5.93;;;3.38;;
39792;SDS011;26080;42.264;24.536;2023-12-29T06:56:26;17.75;;;6.75;;
39792;SDS011;26080;42.264;24.536;2023-12-29T06:58:52;62.60;;;22.77;;
39792;SDS011;26080;42.264;24.536;2023-12-29T07:01:18;74.30;;;30.70;;
39792;SDS011;26080;42.264;24.536;2023-12-29T07:03:45;40.00;;;18.92;;
39792;SDS011;26080;42.264;24.536;2023-12-29T07:06:10;34.00;;;13.02;;
39792;SDS011;26080;42.264;24.536;2023-12-29T07:08:36;60.70;;;18.05;;
39792;SDS011;26080;42.264;24.536;2023-12-29T07:11:02;84.88;;;28.83;;
39792;SDS011;26080;42.264;24.536;2023-12-29T07:13:28;109.43;;;37.00;;
39792;SDS011;26080;42.264;24.536;2023-12-29T07:15:54;86.07;;;28.15;;
39792;SDS011;26080;42.264;24.536;2023-12-29T07:18:19;18.42;;;6.85;;
39792;SDS011;26080;42.264;24.536;2023-12-29T07:20:45;119.20;;;36.05;;
39792;SDS011;26080;42.264;24.536;2023-12-29T07:23:10;29.73;;;8.77;;
39792;SDS011;26080;42.264;24.536;2023-12-29T07:25:35;36.97;;;13.30;;
39792;SDS011;26080;42.264;24.536;2023-12-29T07:28:01;28.75;;;11.70;;
39792;SDS011;26080;42.264;24.536;2023-12-29T07:30:26;65.47;;;26.00;;
39792;SDS011;26080;42.264;24.536;2023-12-29T07:32:52;44.30;;;18.25;;
39792;SDS011;26080;42.264;24.536;2023-12-29T07:35:17;28.33;;;11.30;;
39792;SDS011;26080;42.264;24.536;2023-12-29T07:37:44;93.35;;;41.20;;
39792;SDS011;26080;42.264;24.536;2023-12-29T07:40:11;92.63;;;40.25;;
39792;SDS011;26080;42.264;24.536;2023-12-29T07:42:39;114.53;;;52.53;;
39792;SDS011;26080;42.264;24.536;2023-12-29T07:45:05;108.78;;;48.17;;
39792;SDS011;26080;42.264;24.536;2023-12-29T07:47:31;62.58;;;23.92;;
39792;SDS011;26080;42.264;24.536;2023-12-29T07:49:57;37.28;;;13.40;;
39792;SDS011;26080;42.264;24.536;2023-12-29T07:52:22;18.83;;;7.30;;
39792;SDS011;26080;42.264;24.536;2023-12-29T07:54:48;18.63;;;8.10;;
39792;SDS011;26080;42.264;24.536;2023-12-29T07:57:14;21.10;;;9.23;;
39792;SDS011;26080;42.264;24.536;2023-12-29T07:59:39;17.35;;;6.68;;
39792;SDS011;26080;42.264;24.536;2023-12-29T08:02:05;14.88;;;5.82;;
39792;SDS011;26080;42.264;24.536;2023-12-29T08:04:31;22.13;;;10.57;;
39792;SDS011;26080;42.264;24.536;2023-12-29T08:06:56;22.88;;;12.55;;
39792;SDS011;26080;42.264;24.536;2023-12-29T08:09:21;66.55;;;27.58;;
39792;SDS011;26080;42.264;24.536;2023-12-29T08:11:48;52.35;;;19.60;;
39792;SDS011;26080;42.264;24.536;2023-12-29T08:14:14;25.88;;;11.27;;
39792;SDS011;26080;42.264;24.536;2023-12-29T08:16:40;40.05;;;20.25;;
39792;SDS011;26080;42.264;24.536;2023-12-29T08:19:06;45.50;;;17.58;;
39792;SDS011;26080;42.264;24.536;2023-12-29T08:21:32;46.40;;;17.67;;
39792;SDS011;26080;42.264;24.536;2023-12-29T08:23:57;23.65;;;9.95;;
39792;SDS011;26080;42.264;24.536;2023-12-29T08:26:23;24.35;;;10.35;;
39792;SDS011;26080;42.264;24.536;2023-12-29T08:28:48;13.80;;;8.45;;
39792;SDS011;26080;42.264;24.536;2023-12-29T08:31:14;21.70;;;8.70;;
39792;SDS011;26080;42.264;24.536;2023-12-29T08:33:40;90.28;;;33.55;;
39792;SDS011;26080;42.264;24.536;2023-12-29T08:36:05;27.65;;;12.90;;
39792;SDS011;26080;42.264;24.536;2023-12-29T08:38:31;26.23;;;11.68;;
39792;SDS011;26080;42.264;24.536;2023-12-29T08:40:57;26.88;;;12.50;;
39792;SDS011;26080;42.264;24.536;2023-12-29T08:43:23;13.35;;;7.53;;
39792;SDS011;26080;42.264;24.536;2023-12-29T08:45:48;13.93;;;9.07;;
39792;SDS011;26080;42.264;24.536;2023-12-29T08:48:14;50.72;;;18.00;;
39792;SDS011;26080;42.264;24.536;2023-12-29T08:50:39;26.17;;;12.85;;
39792;SDS011;26080;42.264;24.536;2023-12-29T08:53:05;38.88;;;17.60;;
39792;SDS011;26080;42.264;24.536;2023-12-29T08:55:30;34.67;;;15.98;;
39792;SDS011;26080;42.264;24.536;2023-12-29T08:57:56;26.60;;;13.98;;
39792;SDS011;26080;42.264;24.536;2023-12-29T09:00:22;16.50;;;9.00;;
39792;SDS011;26080;42.264;24.536;2023-12-29T09:02:48;20.83;;;10.02;;
39792;SDS011;26080;42.264;24.536;2023-12-29T09:05:13;18.92;;;8.07;;
39792;SDS011;26080;42.264;24.536;2023-12-29T09:07:39;22.00;;;10.07;;
39792;SDS011;26080;42.264;24.536;2023-12-29T09:10:05;18.45;;;9.70;;
39792;SDS011;26080;42.264;24.536;2023-12-29T09:12:36;12.45;;;6.55;;
39792;SDS011;26080;42.264;24.536;2023-12-29T09:15:03;12.18;;;4.82;;
39792;SDS011;26080;42.264;24.536;2023-12-29T09:17:30;12.13;;;6.05;;
39792;SDS011;26080;42.264;24.536;2023-12-29T09:19:55;9.95;;;3.88;;
39792;SDS011;26080;42.264;24.536;2023-12-29T09:22:21;8.98;;;4.90;;
39792;SDS011;26080;42.264;24.536;2023-12-29T09:24:46;10.23;;;4.45;;
39792;SDS011;26080;42.264;24.536;2023-12-29T09:27:12;8.40;;;4.20;;
39792;SDS011;26080;42.264;24.536;2023-12-29T09:29:38;13.70;;;4.93;;
39792;SDS011;26080;42.264;24.536;2023-12-29T09:32:03;22.65;;;7.38;;
39792;SDS011;26080;42.264;24.536;2023-12-29T09:34:29;9.23;;;4.90;;
39792;SDS011;26080;42.264;24.536;2023-12-29T09:36:55;9.63;;;5.15;;
39792;SDS011;26080;42.264;24.536;2023-12-29T09:39:20;13.68;;;6.65;;
39792;SDS011;26080;42.264;24.536;2023-12-29T09:41:46;11.40;;;5.63;;
39792;SDS011;26080;42.264;24.536;2023-12-29T09:44:15;11.13;;;4.68;;
39792;SDS011;26080;42.264;24.536;2023-12-29T09:46:41;9.02;;;4.25;;
39792;SDS011;26080;42.264;24.536;2023-12-29T09:49:08;7.13;;;3.92;;
39792;SDS011;26080;42.264;24.536;2023-12-29T09:51:34;9.77;;;3.88;;
39792;SDS011;26080;42.264;24.536;2023-12-29T09:54:01;5.63;;;3.35;;
39792;SDS011;26080;42.264;24.536;2023-12-29T09:56:27;11.05;;;4.47;;
39792;SDS011;26080;42.264;24.536;2023-12-29T09:58:53;8.95;;;3.35;;
39792;SDS011;26080;42.264;24.536;2023-12-29T10:01:20;25.83;;;4.88;;
39792;SDS011;26080;42.264;24.536;2023-12-29T10:03:47;4.78;;;2.97;;
39792;SDS011;26080;42.264;24.536;2023-12-29T10:06:16;17.88;;;2.85;;
39792;SDS011;26080;42.264;24.536;2023-12-29T10:08:45;5.45;;;2.63;;
39792;SDS011;26080;42.264;24.536;2023-12-29T10:11:11;6.80;;;2.35;;
39792;SDS011;26080;42.264;24.536;2023-12-29T10:13:40;3.45;;;1.45;;
39792;SDS011;26080;42.264;24.536;2023-12-29T10:19:13;7.05;;;2.20;;
39792;SDS011;26080;42.264;24.536;2023-12-29T10:24:17;2.58;;;2.05;;
39792;SDS011;26080;42.264;24.536;2023-12-29T10:26:45;4.15;;;2.70;;
39792;SDS011;26080;42.264;24.536;2023-12-29T10:29:12;6.72;;;2.03;;
39792;SDS011;26080;42.264;24.536;2023-12-29T10:31:38;2.65;;;1.35;;
39792;SDS011;26080;42.264;24.536;2023-12-29T10:37:00;6.18;;;3.35;;
39792;SDS011;26080;42.264;24.536;2023-12-29T10:39:28;6.00;;;2.80;;
39792;SDS011;26080;42.264;24.536;2023-12-29T10:42:06;6.07;;;2.50;;
39792;SDS011;26080;42.264;24.536;2023-12-29T10:44:34;4.18;;;2.63;;
39792;SDS011;26080;42.264;24.536;2023-12-29T10:47:13;4.38;;;2.15;;
39792;SDS011;26080;42.264;24.536;2023-12-29T10:49:40;2.67;;;2.22;;
39792;SDS011;26080;42.264;24.536;2023-12-29T10:52:12;10.35;;;3.50;;
39792;SDS011;26080;42.264;24.536;2023-12-29T10:54:41;6.32;;;3.22;;
39792;SDS011;26080;42.264;24.536;2023-12-29T10:57:10;5.15;;;2.22;;
39792;SDS011;26080;42.264;24.536;2023-12-29T10:59:37;4.07;;;2.33;;
39792;SDS011;26080;42.264;24.536;2023-12-29T11:02:02;7.55;;;2.78;;
39792;SDS011;26080;42.264;24.536;2023-12-29T11:04:28;3.90;;;1.77;;
39792;SDS011;26080;42.264;24.536;2023-12-29T11:06:54;5.25;;;2.70;;
39792;SDS011;26080;42.264;24.536;2023-12-29T11:11:58;4.43;;;2.92;;
39792;SDS011;26080;42.264;24.536;2023-12-29T11:14:25;3.13;;;1.90;;
39792;SDS011;26080;42.264;24.536;2023-12-29T11:16:51;7.78;;;2.80;;
39792;SDS011;26080;42.264;24.536;2023-12-29T11:19:17;4.50;;;2.33;;
39792;SDS011;26080;42.264;24.536;2023-12-29T11:21:43;11.93;;;3.83;;
39792;SDS011;26080;42.264;24.536;2023-12-29T11:24:10;4.22;;;2.33;;
39792;SDS011;26080;42.264;24.536;2023-12-29T11:26:35;7.18;;;2.63;;
39792;SDS011;26080;42.264;24.536;2023-12-29T11:29:03;6.97;;;2.53;;
39792;SDS011;26080;42.264;24.536;2023-12-29T11:31:29;3.00;;;1.67;;
39792;SDS011;26080;42.264;24.536;2023-12-29T11:34:00;2.05;;;1.50;;
39792;SDS011;26080;42.264;24.536;2023-12-29T11:36:34;3.78;;;2.05;;
39792;SDS011;26080;42.264;24.536;2023-12-29T11:44:39;8.30;;;2.72;;
39792;SDS011;26080;42.264;24.536;2023-12-29T11:47:04;19.48;;;2.53;;
39792;SDS011;26080;42.264;24.536;2023-12-29T11:50:04;6.25;;;2.67;;
39792;SDS011;26080;42.264;24.536;2023-12-29T11:52:33;4.63;;;2.17;;
39792;SDS011;26080;42.264;24.536;2023-12-29T11:55:09;4.53;;;2.05;;
39792;SDS011;26080;42.264;24.536;2023-12-29T11:57:36;5.22;;;2.25;;
39792;SDS011;26080;42.264;24.536;2023-12-29T12:00:03;4.40;;;2.15;;
39792;SDS011;26080;42.264;24.536;2023-12-29T12:02:30;3.92;;;2.20;;
39792;SDS011;26080;42.264;24.536;2023-12-29T12:04:56;5.53;;;2.53;;
39792;SDS011;26080;42.264;24.536;2023-12-29T12:09:47;4.03;;;2.45;;
39792;SDS011;26080;42.264;24.536;2023-12-29T12:12:14;4.47;;;2.28;;
39792;SDS011;26080;42.264;24.536;2023-12-29T12:17:53;5.07;;;2.60;;
39792;SDS011;26080;42.264;24.536;2023-12-29T12:20:19;4.82;;;2.75;;
39792;SDS011;26080;42.264;24.536;2023-12-29T12:22:45;8.30;;;2.30;;
39792;SDS011;26080;42.264;24.536;2023-12-29T12:25:21;11.15;;;3.58;;
39792;SDS011;26080;42.264;24.536;2023-12-29T12:27:47;8.07;;;3.70;;
39792;SDS011;26080;42.264;24.536;2023-12-29T12:30:12;4.38;;;2.38;;
39792;SDS011;26080;42.264;24.536;2023-12-29T12:32:44;5.63;;;2.60;;
39792;SDS011;26080;42.264;24.536;2023-12-29T12:35:15;3.35;;;2.40;;
39792;SDS011;26080;42.264;24.536;2023-12-29T12:37:41;12.27;;;6.97;;
39792;SDS011;26080;42.264;24.536;2023-12-29T12:40:07;36.80;;;25.40;;
39792;SDS011;26080;42.264;24.536;2023-12-29T12:42:34;48.97;;;25.88;;
39792;SDS011;26080;42.264;24.536;2023-12-29T12:45:06;17.85;;;8.82;;
39792;SDS011;26080;42.264;24.536;2023-12-29T12:47:37;6.35;;;3.85;;
39792;SDS011;26080;42.264;24.536;2023-12-29T12:50:09;10.50;;;4.10;;
39792;SDS011;26080;42.264;24.536;2023-12-29T12:52:37;11.82;;;4.03;;
39792;SDS011;26080;42.264;24.536;2023-12-29T12:55:03;12.40;;;5.32;;
39792;SDS011;26080;42.264;24.536;2023-12-29T12:57:30;10.50;;;4.93;;
39792;SDS011;26080;42.264;24.536;2023-12-29T12:59:56;9.48;;;3.58;;
39792;SDS011;26080;42.264;24.536;2023-12-29T13:02:24;17.95;;;5.85;;
39792;SDS011;26080;42.264;24.536;2023-12-29T13:04:50;4.65;;;2.72;;
39792;SDS011;26080;42.264;24.536;2023-12-29T13:07:17;7.45;;;4.18;;
39792;SDS011;26080;42.264;24.536;2023-12-29T13:09:43;9.50;;;3.85;;
39792;SDS011;26080;42.264;24.536;2023-12-29T13:12:13;15.98;;;2.72;;
39792;SDS011;26080;42.264;24.536;2023-12-29T13:14:41;9.00;;;3.95;;
39792;SDS011;26080;42.264;24.536;2023-12-29T13:17:08;8.00;;;2.75;;
39792;SDS011;26080;42.264;24.536;2023-12-29T13:19:37;5.97;;;2.60;;
39792;SDS011;26080;42.264;24.536;2023-12-29T13:22:05;9.98;;;4.82;;
39792;SDS011;26080;42.264;24.536;2023-12-29T13:24:45;12.88;;;4.88;;
39792;SDS011;26080;42.264;24.536;2023-12-29T13:27:11;8.95;;;4.75;;
39792;SDS011;26080;42.264;24.536;2023-12-29T13:29:37;30.98;;;5.65;;
39792;SDS011;26080;42.264;24.536;2023-12-29T13:37:09;8.20;;;3.25;;
39792;SDS011;26080;42.264;24.536;2023-12-29T13:42:33;3.28;;;1.98;;
39792;SDS011;26080;42.264;24.536;2023-12-29T13:45:03;6.88;;;1.92;;
39792;SDS011;26080;42.264;24.536;2023-12-29T13:47:42;3.42;;;1.80;;
39792;SDS011;26080;42.264;24.536;2023-12-29T13:50:09;4.68;;;2.83;;
39792;SDS011;26080;42.264;24.536;2023-12-29T13:52:35;5.95;;;2.78;;
39792;SDS011;26080;42.264;24.536;2023-12-29T13:55:03;6.53;;;2.35;;
39792;SDS011;26080;42.264;24.536;2023-12-29T13:57:33;7.07;;;2.72;;
39792;SDS011;26080;42.264;24.536;2023-12-29T14:00:15;6.43;;;3.28;;
39792;SDS011;26080;42.264;24.536;2023-12-29T14:02:41;5.65;;;2.45;;
39792;SDS011;26080;42.264;24.536;2023-12-29T14:07:52;4.22;;;2.78;;
39792;SDS011;26080;42.264;24.536;2023-12-29T14:10:23;9.07;;;4.53;;
39792;SDS011;26080;42.264;24.536;2023-12-29T14:15:40;15.27;;;7.47;;
39792;SDS011;26080;42.264;24.536;2023-12-29T14:20:34;11.85;;;6.68;;
39792;SDS011;26080;42.264;24.536;2023-12-29T14:23:03;18.25;;;8.90;;
39792;SDS011;26080;42.264;24.536;2023-12-29T14:25:30;10.10;;;5.18;;
39792;SDS011;26080;42.264;24.536;2023-12-29T14:28:00;17.98;;;7.75;;
39792;SDS011;26080;42.264;24.536;2023-12-29T14:30:26;18.83;;;7.70;;
39792;SDS011;26080;42.264;24.536;2023-12-29T14:32:53;16.45;;;7.55;;
39792;SDS011;26080;42.264;24.536;2023-12-29T14:35:19;15.98;;;4.63;;
39792;SDS011;26080;42.264;24.536;2023-12-29T14:37:44;6.80;;;3.38;;
39792;SDS011;26080;42.264;24.536;2023-12-29T14:40:10;15.57;;;8.02;;
39792;SDS011;26080;42.264;24.536;2023-12-29T14:42:36;27.33;;;11.75;;
39792;SDS011;26080;42.264;24.536;2023-12-29T14:45:02;25.23;;;10.73;;
39792;SDS011;26080;42.264;24.536;2023-12-29T14:47:29;23.02;;;11.13;;
39792;SDS011;26080;42.264;24.536;2023-12-29T14:49:54;21.42;;;9.50;;
39792;SDS011;26080;42.264;24.536;2023-12-29T14:52:19;19.48;;;8.43;;
39792;SDS011;26080;42.264;24.536;2023-12-29T14:54:45;47.60;;;18.48;;
39792;SDS011;26080;42.264;24.536;2023-12-29T14:57:10;71.82;;;30.15;;
39792;SDS011;26080;42.264;24.536;2023-12-29T14:59:36;123.93;;;53.38;;
39792;SDS011;26080;42.264;24.536;2023-12-29T15:02:01;100.20;;;34.22;;
39792;SDS011;26080;42.264;24.536;2023-12-29T15:04:27;58.42;;;26.55;;